sensor_id;sensor_type;location;lat;lon;timestamp;P1;durP1;ratioP1;P2;durP2;ratioP2
19384;SDS011;9828;54.122;17.974;2024-03-17T00:04:36;18.50;;;2.73;;
19384;SDS011;9828;54.122;17.974;2024-03-17T00:09:56;16.67;;;2.60;;
19384;SDS011;9828;54.122;17.974;2024-03-17T00:15:16;17.60;;;2.83;;
19384;SDS011;9828;54.122;17.974;2024-03-17T00:20:36;7.93;;;1.97;;
19384;SDS011;9828;54.122;17.974;2024-03-17T00:25:58;16.03;;;2.93;;
19384;SDS011;9828;54.122;17.974;2024-03-17T00:31:18;19.93;;;3.33;;
19384;SDS011;9828;54.122;17.974;2024-03-17T00:36:38;14.33;;;2.43;;
19384;SDS011;9828;54.122;17.974;2024-03-17T00:41:57;12.33;;;1.97;;
19384;SDS011;9828;54.122;17.974;2024-03-17T00:47:17;14.00;;;2.47;;
19384;SDS011;9828;54.122;17.974;2024-03-17T00:52:38;14.83;;;2.07;;
19384;SDS011;9828;54.122;17.974;2024-03-17T00:57:58;24.23;;;4.00;;
19384;SDS011;9828;54.122;17.974;2024-03-17T01:03:18;14.17;;;3.23;;
19384;SDS011;9828;54.122;17.974;2024-03-17T01:08:38;14.33;;;2.40;;
19384;SDS011;9828;54.122;17.974;2024-03-17T01:13:58;13.67;;;2.57;;
19384;SDS011;9828;54.122;17.974;2024-03-17T01:19:18;16.90;;;3.00;;
19384;SDS011;9828;54.122;17.974;2024-03-17T01:24:39;9.53;;;2.30;;
19384;SDS011;9828;54.122;17.974;2024-03-17T01:30:05;12.80;;;2.27;;
19384;SDS011;9828;54.122;17.974;2024-03-17T01:35:26;10.27;;;2.03;;
19384;SDS011;9828;54.122;17.974;2024-03-17T01:40:46;9.43;;;2.60;;
19384;SDS011;9828;54.122;17.974;2024-03-17T01:46:09;7.40;;;1.77;;
19384;SDS011;9828;54.122;17.974;2024-03-17T01:51:32;13.77;;;3.10;;
19384;SDS011;9828;54.122;17.974;2024-03-17T01:56:52;8.73;;;1.97;;
19384;SDS011;9828;54.122;17.974;2024-03-17T02:02:12;11.80;;;2.53;;
19384;SDS011;9828;54.122;17.974;2024-03-17T02:07:32;9.87;;;2.07;;
19384;SDS011;9828;54.122;17.974;2024-03-17T02:12:52;6.63;;;1.40;;
19384;SDS011;9828;54.122;17.974;2024-03-17T02:18:13;6.57;;;1.50;;
19384;SDS011;9828;54.122;17.974;2024-03-17T02:23:33;5.80;;;1.20;;
19384;SDS011;9828;54.122;17.974;2024-03-17T02:28:54;3.80;;;0.73;;
19384;SDS011;9828;54.122;17.974;2024-03-17T02:34:13;3.13;;;0.63;;
19384;SDS011;9828;54.122;17.974;2024-03-17T02:39:34;3.03;;;0.80;;
19384;SDS011;9828;54.122;17.974;2024-03-17T02:44:54;2.60;;;0.70;;
19384;SDS011;9828;54.122;17.974;2024-03-17T02:50:15;6.10;;;1.20;;
19384;SDS011;9828;54.122;17.974;2024-03-17T02:55:35;5.57;;;1.53;;
19384;SDS011;9828;54.122;17.974;2024-03-17T03:00:55;5.63;;;1.00;;
19384;SDS011;9828;54.122;17.974;2024-03-17T03:06:15;3.40;;;1.10;;
19384;SDS011;9828;54.122;17.974;2024-03-17T03:11:39;4.20;;;1.47;;
19384;SDS011;9828;54.122;17.974;2024-03-17T03:17:00;3.93;;;0.87;;
19384;SDS011;9828;54.122;17.974;2024-03-17T03:22:20;2.83;;;0.93;;
19384;SDS011;9828;54.122;17.974;2024-03-17T03:27:41;3.33;;;0.97;;
19384;SDS011;9828;54.122;17.974;2024-03-17T03:33:02;2.80;;;0.87;;
19384;SDS011;9828;54.122;17.974;2024-03-17T03:38:24;6.47;;;1.37;;
19384;SDS011;9828;54.122;17.974;2024-03-17T03:43:45;1.40;;;0.80;;
19384;SDS011;9828;54.122;17.974;2024-03-17T03:49:08;2.60;;;1.10;;
19384;SDS011;9828;54.122;17.974;2024-03-17T03:54:28;4.63;;;0.90;;
19384;SDS011;9828;54.122;17.974;2024-03-17T03:59:48;1.00;;;0.60;;
19384;SDS011;9828;54.122;17.974;2024-03-17T04:05:08;1.83;;;0.80;;
19384;SDS011;9828;54.122;17.974;2024-03-17T04:10:29;4.47;;;1.20;;
19384;SDS011;9828;54.122;17.974;2024-03-17T04:15:49;3.20;;;0.90;;
19384;SDS011;9828;54.122;17.974;2024-03-17T04:21:09;1.20;;;0.60;;
19384;SDS011;9828;54.122;17.974;2024-03-17T04:26:29;3.17;;;0.97;;
19384;SDS011;9828;54.122;17.974;2024-03-17T04:31:49;6.17;;;1.63;;
19384;SDS011;9828;54.122;17.974;2024-03-17T04:37:09;3.40;;;1.00;;
19384;SDS011;9828;54.122;17.974;2024-03-17T04:42:33;3.57;;;1.10;;
19384;SDS011;9828;54.122;17.974;2024-03-17T04:47:53;1.33;;;0.70;;
19384;SDS011;9828;54.122;17.974;2024-03-17T04:53:12;2.00;;;0.63;;
19384;SDS011;9828;54.122;17.974;2024-03-17T04:58:33;1.90;;;1.07;;
19384;SDS011;9828;54.122;17.974;2024-03-17T05:03:54;0.70;;;0.70;;
19384;SDS011;9828;54.122;17.974;2024-03-17T05:09:14;3.87;;;0.57;;
19384;SDS011;9828;54.122;17.974;2024-03-17T05:14:34;1.17;;;0.70;;
19384;SDS011;9828;54.122;17.974;2024-03-17T05:19:54;3.30;;;0.70;;
19384;SDS011;9828;54.122;17.974;2024-03-17T05:25:14;0.90;;;0.60;;
19384;SDS011;9828;54.122;17.974;2024-03-17T05:30:35;1.13;;;0.57;;
19384;SDS011;9828;54.122;17.974;2024-03-17T05:35:56;0.73;;;0.60;;
19384;SDS011;9828;54.122;17.974;2024-03-17T05:41:17;1.20;;;0.80;;
19384;SDS011;9828;54.122;17.974;2024-03-17T05:46:37;0.90;;;0.60;;
19384;SDS011;9828;54.122;17.974;2024-03-17T05:51:57;0.60;;;0.50;;
19384;SDS011;9828;54.122;17.974;2024-03-17T05:57:18;0.50;;;0.50;;
19384;SDS011;9828;54.122;17.974;2024-03-17T06:02:38;1.70;;;0.80;;
19384;SDS011;9828;54.122;17.974;2024-03-17T06:07:59;1.20;;;0.60;;
19384;SDS011;9828;54.122;17.974;2024-03-17T06:13:22;0.50;;;0.50;;
19384;SDS011;9828;54.122;17.974;2024-03-17T06:18:44;0.60;;;0.60;;
19384;SDS011;9828;54.122;17.974;2024-03-17T06:24:05;1.70;;;0.70;;
19384;SDS011;9828;54.122;17.974;2024-03-17T06:29:26;2.13;;;1.60;;
19384;SDS011;9828;54.122;17.974;2024-03-17T06:34:46;2.80;;;1.87;;
19384;SDS011;9828;54.122;17.974;2024-03-17T06:40:06;2.37;;;1.33;;
19384;SDS011;9828;54.122;17.974;2024-03-17T06:45:31;1.57;;;1.07;;
19384;SDS011;9828;54.122;17.974;2024-03-17T06:50:52;1.60;;;1.10;;
19384;SDS011;9828;54.122;17.974;2024-03-17T06:56:15;2.33;;;1.27;;
19384;SDS011;9828;54.122;17.974;2024-03-17T07:01:35;3.97;;;1.43;;
19384;SDS011;9828;54.122;17.974;2024-03-17T07:06:55;3.83;;;1.70;;
19384;SDS011;9828;54.122;17.974;2024-03-17T07:12:15;3.80;;;1.40;;
19384;SDS011;9828;54.122;17.974;2024-03-17T07:17:36;2.40;;;1.30;;
19384;SDS011;9828;54.122;17.974;2024-03-17T07:22:56;2.67;;;1.70;;
19384;SDS011;9828;54.122;17.974;2024-03-17T07:28:16;2.10;;;1.40;;
19384;SDS011;9828;54.122;17.974;2024-03-17T07:33:36;4.53;;;1.90;;
19384;SDS011;9828;54.122;17.974;2024-03-17T07:38:57;3.70;;;1.70;;
19384;SDS011;9828;54.122;17.974;2024-03-17T07:44:17;3.33;;;1.80;;
19384;SDS011;9828;54.122;17.974;2024-03-17T07:49:38;5.13;;;2.20;;
19384;SDS011;9828;54.122;17.974;2024-03-17T07:54:58;3.43;;;1.23;;
19384;SDS011;9828;54.122;17.974;2024-03-17T08:00:18;1.17;;;0.73;;
19384;SDS011;9828;54.122;17.974;2024-03-17T08:05:39;2.13;;;1.60;;
19384;SDS011;9828;54.122;17.974;2024-03-17T08:11:01;2.87;;;1.37;;
19384;SDS011;9828;54.122;17.974;2024-03-17T08:16:24;2.63;;;1.77;;
19384;SDS011;9828;54.122;17.974;2024-03-17T08:21:44;3.80;;;1.70;;
19384;SDS011;9828;54.122;17.974;2024-03-17T08:27:04;2.47;;;1.70;;
19384;SDS011;9828;54.122;17.974;2024-03-17T08:32:25;3.63;;;1.60;;
19384;SDS011;9828;54.122;17.974;2024-03-17T08:37:45;13.10;;;4.47;;
19384;SDS011;9828;54.122;17.974;2024-03-17T08:43:05;7.13;;;4.63;;
19384;SDS011;9828;54.122;17.974;2024-03-17T08:48:27;6.53;;;3.77;;
19384;SDS011;9828;54.122;17.974;2024-03-17T08:53:48;4.73;;;2.83;;
19384;SDS011;9828;54.122;17.974;2024-03-17T08:59:09;4.60;;;2.63;;
19384;SDS011;9828;54.122;17.974;2024-03-17T09:04:31;6.43;;;2.80;;
19384;SDS011;9828;54.122;17.974;2024-03-17T09:09:52;5.70;;;2.57;;
19384;SDS011;9828;54.122;17.974;2024-03-17T09:15:12;2.77;;;1.80;;
19384;SDS011;9828;54.122;17.974;2024-03-17T09:20:34;3.50;;;1.80;;
19384;SDS011;9828;54.122;17.974;2024-03-17T09:26:04;4.87;;;2.00;;
19384;SDS011;9828;54.122;17.974;2024-03-17T09:31:27;2.40;;;1.97;;
19384;SDS011;9828;54.122;17.974;2024-03-17T09:36:48;2.77;;;1.50;;
19384;SDS011;9828;54.122;17.974;2024-03-17T09:42:08;4.27;;;1.40;;
19384;SDS011;9828;54.122;17.974;2024-03-17T09:47:37;2.97;;;1.47;;
19384;SDS011;9828;54.122;17.974;2024-03-17T09:52:58;3.73;;;2.07;;
19384;SDS011;9828;54.122;17.974;2024-03-17T09:58:19;2.83;;;1.60;;
19384;SDS011;9828;54.122;17.974;2024-03-17T10:03:46;5.63;;;2.50;;
19384;SDS011;9828;54.122;17.974;2024-03-17T10:09:16;2.93;;;1.50;;
19384;SDS011;9828;54.122;17.974;2024-03-17T10:14:42;3.80;;;2.30;;
19384;SDS011;9828;54.122;17.974;2024-03-17T10:20:21;9.90;;;7.17;;
19384;SDS011;9828;54.122;17.974;2024-03-17T10:25:45;10.60;;;5.97;;
19384;SDS011;9828;54.122;17.974;2024-03-17T10:31:05;7.67;;;4.80;;
19384;SDS011;9828;54.122;17.974;2024-03-17T10:36:27;3.20;;;2.20;;
19384;SDS011;9828;54.122;17.974;2024-03-17T10:41:47;3.70;;;2.03;;
19384;SDS011;9828;54.122;17.974;2024-03-17T10:47:13;4.80;;;1.90;;
19384;SDS011;9828;54.122;17.974;2024-03-17T10:52:41;9.03;;;4.57;;
19384;SDS011;9828;54.122;17.974;2024-03-17T10:58:23;8.47;;;4.03;;
19384;SDS011;9828;54.122;17.974;2024-03-17T11:04:07;6.03;;;2.67;;
19384;SDS011;9828;54.122;17.974;2024-03-17T11:09:31;5.17;;;2.70;;
19384;SDS011;9828;54.122;17.974;2024-03-17T11:15:10;6.03;;;2.53;;
19384;SDS011;9828;54.122;17.974;2024-03-17T11:20:38;6.87;;;2.57;;
19384;SDS011;9828;54.122;17.974;2024-03-17T11:26:00;3.60;;;1.93;;
19384;SDS011;9828;54.122;17.974;2024-03-17T11:31:37;10.57;;;4.27;;
19384;SDS011;9828;54.122;17.974;2024-03-17T11:37:02;6.80;;;3.10;;
19384;SDS011;9828;54.122;17.974;2024-03-17T11:42:27;11.17;;;5.83;;
19384;SDS011;9828;54.122;17.974;2024-03-17T11:47:48;7.20;;;2.93;;
19384;SDS011;9828;54.122;17.974;2024-03-17T11:53:08;6.10;;;2.80;;
19384;SDS011;9828;54.122;17.974;2024-03-17T11:58:30;8.70;;;3.07;;
19384;SDS011;9828;54.122;17.974;2024-03-17T12:03:52;12.27;;;4.43;;
19384;SDS011;9828;54.122;17.974;2024-03-17T12:09:22;4.23;;;2.10;;
19384;SDS011;9828;54.122;17.974;2024-03-17T12:14:44;3.03;;;2.00;;
19384;SDS011;9828;54.122;17.974;2024-03-17T12:20:05;12.40;;;5.77;;
19384;SDS011;9828;54.122;17.974;2024-03-17T12:25:37;8.20;;;3.23;;
19384;SDS011;9828;54.122;17.974;2024-03-17T12:30:58;4.90;;;2.30;;
19384;SDS011;9828;54.122;17.974;2024-03-17T12:36:19;7.13;;;2.00;;
19384;SDS011;9828;54.122;17.974;2024-03-17T12:41:39;6.03;;;2.47;;
19384;SDS011;9828;54.122;17.974;2024-03-17T12:46:59;7.20;;;3.10;;
19384;SDS011;9828;54.122;17.974;2024-03-17T12:52:24;5.63;;;2.60;;
19384;SDS011;9828;54.122;17.974;2024-03-17T12:57:49;2.97;;;1.50;;
19384;SDS011;9828;54.122;17.974;2024-03-17T13:03:48;4.63;;;2.10;;
19384;SDS011;9828;54.122;17.974;2024-03-17T13:09:09;3.57;;;2.00;;
19384;SDS011;9828;54.122;17.974;2024-03-17T13:14:30;5.17;;;1.90;;
19384;SDS011;9828;54.122;17.974;2024-03-17T13:19:51;10.23;;;3.53;;
19384;SDS011;9828;54.122;17.974;2024-03-17T13:25:17;7.00;;;1.93;;
19384;SDS011;9828;54.122;17.974;2024-03-17T13:30:41;5.13;;;3.07;;
19384;SDS011;9828;54.122;17.974;2024-03-17T13:36:03;6.70;;;4.13;;
19384;SDS011;9828;54.122;17.974;2024-03-17T13:41:23;4.40;;;2.40;;
19384;SDS011;9828;54.122;17.974;2024-03-17T13:46:44;10.73;;;5.70;;
19384;SDS011;9828;54.122;17.974;2024-03-17T13:52:04;7.33;;;4.00;;
19384;SDS011;9828;54.122;17.974;2024-03-17T13:57:25;9.73;;;3.80;;
19384;SDS011;9828;54.122;17.974;2024-03-17T14:02:46;8.17;;;4.77;;
19384;SDS011;9828;54.122;17.974;2024-03-17T14:08:07;11.43;;;6.47;;
19384;SDS011;9828;54.122;17.974;2024-03-17T14:13:28;12.97;;;5.87;;
19384;SDS011;9828;54.122;17.974;2024-03-17T14:18:48;18.03;;;6.83;;
19384;SDS011;9828;54.122;17.974;2024-03-17T14:24:08;14.03;;;6.30;;
19384;SDS011;9828;54.122;17.974;2024-03-17T14:29:29;9.87;;;6.07;;
19384;SDS011;9828;54.122;17.974;2024-03-17T14:34:50;19.00;;;7.57;;
19384;SDS011;9828;54.122;17.974;2024-03-17T14:40:11;16.70;;;9.77;;
19384;SDS011;9828;54.122;17.974;2024-03-17T14:45:39;5.47;;;3.07;;
19384;SDS011;9828;54.122;17.974;2024-03-17T14:50:59;9.60;;;3.63;;
19384;SDS011;9828;54.122;17.974;2024-03-17T14:56:19;4.40;;;3.30;;
19384;SDS011;9828;54.122;17.974;2024-03-17T15:01:39;6.53;;;4.20;;
19384;SDS011;9828;54.122;17.974;2024-03-17T15:07:00;6.77;;;3.80;;
19384;SDS011;9828;54.122;17.974;2024-03-17T15:12:20;4.60;;;2.03;;
19384;SDS011;9828;54.122;17.974;2024-03-17T15:17:40;5.00;;;2.20;;
19384;SDS011;9828;54.122;17.974;2024-03-17T15:23:03;4.77;;;2.07;;
19384;SDS011;9828;54.122;17.974;2024-03-17T15:28:24;6.27;;;2.20;;
19384;SDS011;9828;54.122;17.974;2024-03-17T15:33:44;2.87;;;1.23;;
19384;SDS011;9828;54.122;17.974;2024-03-17T15:39:04;3.27;;;1.30;;
19384;SDS011;9828;54.122;17.974;2024-03-17T15:44:25;3.87;;;2.23;;
19384;SDS011;9828;54.122;17.974;2024-03-17T15:49:45;5.20;;;2.00;;
19384;SDS011;9828;54.122;17.974;2024-03-17T15:55:05;8.30;;;2.70;;
19384;SDS011;9828;54.122;17.974;2024-03-17T16:00:26;7.90;;;4.17;;
19384;SDS011;9828;54.122;17.974;2024-03-17T16:05:48;7.63;;;3.80;;
19384;SDS011;9828;54.122;17.974;2024-03-17T16:11:12;10.83;;;5.43;;
19384;SDS011;9828;54.122;17.974;2024-03-17T16:16:35;4.60;;;1.83;;
19384;SDS011;9828;54.122;17.974;2024-03-17T16:21:57;9.13;;;4.27;;
19384;SDS011;9828;54.122;17.974;2024-03-17T16:27:17;7.73;;;4.00;;
19384;SDS011;9828;54.122;17.974;2024-03-17T16:32:37;7.23;;;2.97;;
19384;SDS011;9828;54.122;17.974;2024-03-17T16:37:57;6.30;;;2.90;;
19384;SDS011;9828;54.122;17.974;2024-03-17T16:43:20;5.60;;;3.27;;
19384;SDS011;9828;54.122;17.974;2024-03-17T16:48:47;11.37;;;5.17;;
19384;SDS011;9828;54.122;17.974;2024-03-17T16:54:09;7.37;;;3.67;;
19384;SDS011;9828;54.122;17.974;2024-03-17T16:59:29;7.40;;;3.40;;
19384;SDS011;9828;54.122;17.974;2024-03-17T17:04:50;20.20;;;8.97;;
19384;SDS011;9828;54.122;17.974;2024-03-17T17:10:10;10.30;;;4.53;;
19384;SDS011;9828;54.122;17.974;2024-03-17T17:15:37;11.90;;;5.13;;
19384;SDS011;9828;54.122;17.974;2024-03-17T17:20:57;10.70;;;5.60;;
19384;SDS011;9828;54.122;17.974;2024-03-17T17:26:18;11.77;;;4.80;;
19384;SDS011;9828;54.122;17.974;2024-03-17T17:31:41;6.37;;;1.97;;
19384;SDS011;9828;54.122;17.974;2024-03-17T17:37:04;6.30;;;2.90;;
19384;SDS011;9828;54.122;17.974;2024-03-17T17:42:25;7.33;;;2.40;;
19384;SDS011;9828;54.122;17.974;2024-03-17T17:47:46;10.57;;;5.23;;
19384;SDS011;9828;54.122;17.974;2024-03-17T17:53:06;11.53;;;4.93;;
19384;SDS011;9828;54.122;17.974;2024-03-17T17:58:27;5.47;;;2.87;;
19384;SDS011;9828;54.122;17.974;2024-03-17T18:03:47;6.77;;;3.60;;
19384;SDS011;9828;54.122;17.974;2024-03-17T18:09:08;9.57;;;3.13;;
19384;SDS011;9828;54.122;17.974;2024-03-17T18:14:35;6.70;;;2.70;;
19384;SDS011;9828;54.122;17.974;2024-03-17T18:19:55;5.67;;;2.90;;
19384;SDS011;9828;54.122;17.974;2024-03-17T18:25:15;8.20;;;2.93;;
19384;SDS011;9828;54.122;17.974;2024-03-17T18:30:36;10.23;;;4.10;;
19384;SDS011;9828;54.122;17.974;2024-03-17T18:35:56;7.73;;;3.53;;
19384;SDS011;9828;54.122;17.974;2024-03-17T18:41:16;7.17;;;2.70;;
19384;SDS011;9828;54.122;17.974;2024-03-17T18:46:36;12.33;;;4.90;;
19384;SDS011;9828;54.122;17.974;2024-03-17T18:51:56;8.10;;;4.60;;
19384;SDS011;9828;54.122;17.974;2024-03-17T18:57:17;9.23;;;5.20;;
19384;SDS011;9828;54.122;17.974;2024-03-17T19:02:37;12.30;;;5.00;;
19384;SDS011;9828;54.122;17.974;2024-03-17T19:07:57;9.70;;;4.67;;
19384;SDS011;9828;54.122;17.974;2024-03-17T19:13:19;10.07;;;3.63;;
19384;SDS011;9828;54.122;17.974;2024-03-17T19:18:39;7.83;;;3.13;;
19384;SDS011;9828;54.122;17.974;2024-03-17T19:24:00;8.00;;;2.97;;
19384;SDS011;9828;54.122;17.974;2024-03-17T19:29:20;13.87;;;5.13;;
19384;SDS011;9828;54.122;17.974;2024-03-17T19:34:41;11.67;;;5.30;;
19384;SDS011;9828;54.122;17.974;2024-03-17T19:40:01;9.83;;;2.40;;
19384;SDS011;9828;54.122;17.974;2024-03-17T19:45:22;6.47;;;3.00;;
19384;SDS011;9828;54.122;17.974;2024-03-17T19:50:43;10.73;;;4.10;;
19384;SDS011;9828;54.122;17.974;2024-03-17T19:56:03;7.93;;;2.60;;
19384;SDS011;9828;54.122;17.974;2024-03-17T20:01:23;5.67;;;3.10;;
19384;SDS011;9828;54.122;17.974;2024-03-17T20:06:44;8.43;;;3.00;;
19384;SDS011;9828;54.122;17.974;2024-03-17T20:12:04;10.23;;;2.93;;
19384;SDS011;9828;54.122;17.974;2024-03-17T20:17:25;7.40;;;2.87;;
19384;SDS011;9828;54.122;17.974;2024-03-17T20:22:45;26.00;;;9.97;;
19384;SDS011;9828;54.122;17.974;2024-03-17T20:28:05;7.83;;;2.90;;
19384;SDS011;9828;54.122;17.974;2024-03-17T20:33:27;7.80;;;3.17;;
19384;SDS011;9828;54.122;17.974;2024-03-17T20:38:47;16.53;;;4.60;;
19384;SDS011;9828;54.122;17.974;2024-03-17T20:44:08;10.50;;;4.67;;
19384;SDS011;9828;54.122;17.974;2024-03-17T20:49:27;9.70;;;4.93;;
19384;SDS011;9828;54.122;17.974;2024-03-17T20:54:48;22.47;;;9.00;;
19384;SDS011;9828;54.122;17.974;2024-03-17T21:00:08;9.07;;;3.83;;
19384;SDS011;9828;54.122;17.974;2024-03-17T21:05:47;12.43;;;5.03;;
19384;SDS011;9828;54.122;17.974;2024-03-17T21:11:08;6.80;;;2.13;;
19384;SDS011;9828;54.122;17.974;2024-03-17T21:16:28;8.50;;;2.40;;
19384;SDS011;9828;54.122;17.974;2024-03-17T21:21:48;11.50;;;2.77;;
19384;SDS011;9828;54.122;17.974;2024-03-17T21:27:10;8.77;;;2.57;;
19384;SDS011;9828;54.122;17.974;2024-03-17T21:32:30;9.07;;;2.87;;
19384;SDS011;9828;54.122;17.974;2024-03-17T21:37:50;8.37;;;2.50;;
19384;SDS011;9828;54.122;17.974;2024-03-17T21:43:11;5.00;;;2.10;;
19384;SDS011;9828;54.122;17.974;2024-03-17T21:48:31;7.23;;;2.57;;
19384;SDS011;9828;54.122;17.974;2024-03-17T21:53:51;7.13;;;2.37;;
19384;SDS011;9828;54.122;17.974;2024-03-17T21:59:11;5.17;;;2.13;;
19384;SDS011;9828;54.122;17.974;2024-03-17T22:04:31;11.20;;;2.93;;
19384;SDS011;9828;54.122;17.974;2024-03-17T22:09:52;6.67;;;2.27;;
19384;SDS011;9828;54.122;17.974;2024-03-17T22:15:12;4.50;;;1.77;;
19384;SDS011;9828;54.122;17.974;2024-03-17T22:20:32;4.97;;;1.90;;
19384;SDS011;9828;54.122;17.974;2024-03-17T22:25:52;4.97;;;1.57;;
19384;SDS011;9828;54.122;17.974;2024-03-17T22:31:22;10.47;;;1.80;;
19384;SDS011;9828;54.122;17.974;2024-03-17T22:36:44;3.27;;;1.43;;
19384;SDS011;9828;54.122;17.974;2024-03-17T22:42:04;6.17;;;1.93;;
19384;SDS011;9828;54.122;17.974;2024-03-17T22:47:24;7.23;;;2.50;;
19384;SDS011;9828;54.122;17.974;2024-03-17T22:52:44;5.50;;;2.13;;
19384;SDS011;9828;54.122;17.974;2024-03-17T22:58:05;4.57;;;1.80;;
19384;SDS011;9828;54.122;17.974;2024-03-17T23:03:26;4.53;;;1.60;;
19384;SDS011;9828;54.122;17.974;2024-03-17T23:08:47;4.07;;;1.20;;
19384;SDS011;9828;54.122;17.974;2024-03-17T23:14:07;6.40;;;1.57;;
19384;SDS011;9828;54.122;17.974;2024-03-17T23:19:28;5.40;;;1.57;;
19384;SDS011;9828;54.122;17.974;2024-03-17T23:24:48;4.17;;;1.50;;
19384;SDS011;9828;54.122;17.974;2024-03-17T23:30:08;8.17;;;2.10;;
19384;SDS011;9828;54.122;17.974;2024-03-17T23:35:29;4.37;;;1.77;;
19384;SDS011;9828;54.122;17.974;2024-03-17T23:40:49;7.00;;;2.23;;
19384;SDS011;9828;54.122;17.974;2024-03-17T23:46:10;6.27;;;1.70;;
19384;SDS011;9828;54.122;17.974;2024-03-17T23:51:29;5.03;;;1.73;;
19384;SDS011;9828;54.122;17.974;2024-03-17T23:56:49;9.40;;;2.70;;
